sensor_id;sensor_type;location;lat;lon;timestamp;P1;durP1;ratioP1;P2;durP2;ratioP2
75450;SDS011;64029;48.244;9.188;2022-10-16T00:00:36;1.80;;;1.20;;
75450;SDS011;64029;48.244;9.188;2022-10-16T00:03:04;2.57;;;1.23;;
75450;SDS011;64029;48.244;9.188;2022-10-16T00:05:31;4.63;;;1.50;;
75450;SDS011;64029;48.244;9.188;2022-10-16T00:07:58;1.83;;;1.10;;
75450;SDS011;64029;48.244;9.188;2022-10-16T00:10:24;5.17;;;1.70;;
75450;SDS011;64029;48.244;9.188;2022-10-16T00:12:53;2.70;;;1.43;;
75450;SDS011;64029;48.244;9.188;2022-10-16T00:15:19;4.83;;;1.37;;
75450;SDS011;64029;48.244;9.188;2022-10-16T00:17:46;1.70;;;1.37;;
75450;SDS011;64029;48.244;9.188;2022-10-16T00:20:13;1.80;;;1.33;;
75450;SDS011;64029;48.244;9.188;2022-10-16T00:22:40;1.40;;;1.30;;
75450;SDS011;64029;48.244;9.188;2022-10-16T00:25:07;2.50;;;1.73;;
75450;SDS011;64029;48.244;9.188;2022-10-16T00:27:34;3.87;;;1.30;;
75450;SDS011;64029;48.244;9.188;2022-10-16T00:30:03;3.30;;;1.40;;
75450;SDS011;64029;48.244;9.188;2022-10-16T00:32:30;1.90;;;1.20;;
75450;SDS011;64029;48.244;9.188;2022-10-16T00:34:57;4.13;;;1.30;;
75450;SDS011;64029;48.244;9.188;2022-10-16T00:37:24;1.63;;;1.53;;
75450;SDS011;64029;48.244;9.188;2022-10-16T00:39:51;2.60;;;1.37;;
75450;SDS011;64029;48.244;9.188;2022-10-16T00:42:18;1.50;;;1.37;;
75450;SDS011;64029;48.244;9.188;2022-10-16T00:44:47;1.77;;;1.50;;
75450;SDS011;64029;48.244;9.188;2022-10-16T00:47:19;1.40;;;1.30;;
75450;SDS011;64029;48.244;9.188;2022-10-16T00:49:50;1.80;;;1.40;;
75450;SDS011;64029;48.244;9.188;2022-10-16T00:52:21;1.53;;;1.43;;
75450;SDS011;64029;48.244;9.188;2022-10-16T00:54:49;3.30;;;1.30;;
75450;SDS011;64029;48.244;9.188;2022-10-16T00:57:17;1.50;;;1.40;;
75450;SDS011;64029;48.244;9.188;2022-10-16T00:59:44;2.07;;;1.43;;
75450;SDS011;64029;48.244;9.188;2022-10-16T01:02:12;2.10;;;1.90;;
75450;SDS011;64029;48.244;9.188;2022-10-16T01:04:42;3.23;;;1.30;;
75450;SDS011;64029;48.244;9.188;2022-10-16T01:07:12;2.47;;;2.00;;
75450;SDS011;64029;48.244;9.188;2022-10-16T01:09:52;2.90;;;1.33;;
75450;SDS011;64029;48.244;9.188;2022-10-16T01:12:32;1.70;;;1.40;;
75450;SDS011;64029;48.244;9.188;2022-10-16T01:15:08;1.80;;;1.30;;
75450;SDS011;64029;48.244;9.188;2022-10-16T01:17:45;2.60;;;1.40;;
75450;SDS011;64029;48.244;9.188;2022-10-16T01:20:20;11.10;;;1.47;;
75450;SDS011;64029;48.244;9.188;2022-10-16T01:25:55;7.83;;;1.40;;
75450;SDS011;64029;48.244;9.188;2022-10-16T01:28:34;1.63;;;1.53;;
75450;SDS011;64029;48.244;9.188;2022-10-16T01:31:05;3.83;;;1.60;;
75450;SDS011;64029;48.244;9.188;2022-10-16T01:33:35;1.60;;;1.50;;
75450;SDS011;64029;48.244;9.188;2022-10-16T01:36:07;2.20;;;1.33;;
75450;SDS011;64029;48.244;9.188;2022-10-16T01:38:39;5.40;;;1.40;;
75450;SDS011;64029;48.244;9.188;2022-10-16T01:41:09;2.90;;;1.20;;
75450;SDS011;64029;48.244;9.188;2022-10-16T01:43:40;1.87;;;1.37;;
75450;SDS011;64029;48.244;9.188;2022-10-16T01:46:11;3.63;;;1.67;;
75450;SDS011;64029;48.244;9.188;2022-10-16T01:48:41;3.60;;;1.30;;
75450;SDS011;64029;48.244;9.188;2022-10-16T01:51:09;2.63;;;2.20;;
75450;SDS011;64029;48.244;9.188;2022-10-16T01:53:38;1.47;;;1.23;;
75450;SDS011;64029;48.244;9.188;2022-10-16T01:56:07;2.13;;;1.40;;
75450;SDS011;64029;48.244;9.188;2022-10-16T01:58:40;5.17;;;2.00;;
75450;SDS011;64029;48.244;9.188;2022-10-16T02:01:12;2.23;;;1.30;;
75450;SDS011;64029;48.244;9.188;2022-10-16T02:03:41;3.50;;;1.60;;
75450;SDS011;64029;48.244;9.188;2022-10-16T02:06:10;3.13;;;1.40;;
75450;SDS011;64029;48.244;9.188;2022-10-16T02:08:37;2.70;;;1.40;;
75450;SDS011;64029;48.244;9.188;2022-10-16T02:11:09;7.10;;;1.80;;
75450;SDS011;64029;48.244;9.188;2022-10-16T02:13:37;1.57;;;1.30;;
75450;SDS011;64029;48.244;9.188;2022-10-16T02:16:11;1.40;;;1.30;;
75450;SDS011;64029;48.244;9.188;2022-10-16T02:18:39;2.47;;;1.30;;
75450;SDS011;64029;48.244;9.188;2022-10-16T02:21:10;4.50;;;1.40;;
75450;SDS011;64029;48.244;9.188;2022-10-16T02:23:44;3.50;;;1.47;;
75450;SDS011;64029;48.244;9.188;2022-10-16T02:26:18;1.40;;;1.30;;
75450;SDS011;64029;48.244;9.188;2022-10-16T02:28:54;2.60;;;1.40;;
75450;SDS011;64029;48.244;9.188;2022-10-16T02:31:27;1.87;;;1.37;;
75450;SDS011;64029;48.244;9.188;2022-10-16T02:33:59;1.93;;;1.33;;
75450;SDS011;64029;48.244;9.188;2022-10-16T02:36:27;4.17;;;1.50;;
75450;SDS011;64029;48.244;9.188;2022-10-16T02:38:55;1.67;;;1.40;;
75450;SDS011;64029;48.244;9.188;2022-10-16T02:41:22;1.63;;;1.10;;
75450;SDS011;64029;48.244;9.188;2022-10-16T02:43:50;1.70;;;1.40;;
75450;SDS011;64029;48.244;9.188;2022-10-16T02:46:16;1.30;;;1.20;;
75450;SDS011;64029;48.244;9.188;2022-10-16T02:48:45;4.33;;;1.80;;
75450;SDS011;64029;48.244;9.188;2022-10-16T02:51:12;2.20;;;1.20;;
75450;SDS011;64029;48.244;9.188;2022-10-16T02:53:39;2.00;;;1.80;;
75450;SDS011;64029;48.244;9.188;2022-10-16T02:56:06;1.50;;;1.40;;
75450;SDS011;64029;48.244;9.188;2022-10-16T02:58:33;3.53;;;1.60;;
75450;SDS011;64029;48.244;9.188;2022-10-16T03:01:00;5.13;;;2.47;;
75450;SDS011;64029;48.244;9.188;2022-10-16T03:03:27;1.30;;;1.20;;
75450;SDS011;64029;48.244;9.188;2022-10-16T03:05:55;3.10;;;1.40;;
75450;SDS011;64029;48.244;9.188;2022-10-16T03:08:22;4.83;;;1.37;;
75450;SDS011;64029;48.244;9.188;2022-10-16T03:10:50;3.73;;;1.60;;
75450;SDS011;64029;48.244;9.188;2022-10-16T03:13:17;2.67;;;1.83;;
75450;SDS011;64029;48.244;9.188;2022-10-16T03:15:45;1.60;;;1.50;;
75450;SDS011;64029;48.244;9.188;2022-10-16T03:18:12;3.77;;;1.43;;
75450;SDS011;64029;48.244;9.188;2022-10-16T03:20:39;2.80;;;1.80;;
75450;SDS011;64029;48.244;9.188;2022-10-16T03:23:07;2.03;;;1.70;;
75450;SDS011;64029;48.244;9.188;2022-10-16T03:25:34;6.73;;;1.90;;
75450;SDS011;64029;48.244;9.188;2022-10-16T03:28:01;2.60;;;1.40;;
75450;SDS011;64029;48.244;9.188;2022-10-16T03:30:29;2.90;;;1.70;;
75450;SDS011;64029;48.244;9.188;2022-10-16T03:32:56;1.50;;;1.40;;
75450;SDS011;64029;48.244;9.188;2022-10-16T03:35:23;1.77;;;1.67;;
75450;SDS011;64029;48.244;9.188;2022-10-16T03:37:50;2.97;;;1.50;;
75450;SDS011;64029;48.244;9.188;2022-10-16T03:40:19;2.67;;;1.33;;
75450;SDS011;64029;48.244;9.188;2022-10-16T03:42:46;5.80;;;1.70;;
75450;SDS011;64029;48.244;9.188;2022-10-16T03:45:12;3.47;;;2.00;;
75450;SDS011;64029;48.244;9.188;2022-10-16T03:47:39;2.60;;;1.70;;
75450;SDS011;64029;48.244;9.188;2022-10-16T03:50:07;2.60;;;1.60;;
75450;SDS011;64029;48.244;9.188;2022-10-16T03:52:34;2.07;;;1.60;;
75450;SDS011;64029;48.244;9.188;2022-10-16T03:55:01;3.90;;;1.70;;
75450;SDS011;64029;48.244;9.188;2022-10-16T03:57:29;1.93;;;1.40;;
75450;SDS011;64029;48.244;9.188;2022-10-16T03:59:56;4.33;;;1.70;;
75450;SDS011;64029;48.244;9.188;2022-10-16T04:02:22;6.47;;;1.77;;
75450;SDS011;64029;48.244;9.188;2022-10-16T04:04:49;7.57;;;1.70;;
75450;SDS011;64029;48.244;9.188;2022-10-16T04:07:16;2.63;;;1.57;;
75450;SDS011;64029;48.244;9.188;2022-10-16T04:09:43;2.03;;;1.40;;
75450;SDS011;64029;48.244;9.188;2022-10-16T04:12:10;2.23;;;1.53;;
75450;SDS011;64029;48.244;9.188;2022-10-16T04:14:38;2.97;;;1.50;;
75450;SDS011;64029;48.244;9.188;2022-10-16T04:17:05;2.47;;;1.77;;
75450;SDS011;64029;48.244;9.188;2022-10-16T04:19:31;3.47;;;1.40;;
75450;SDS011;64029;48.244;9.188;2022-10-16T04:21:58;1.50;;;1.40;;
75450;SDS011;64029;48.244;9.188;2022-10-16T04:24:25;1.80;;;1.70;;
75450;SDS011;64029;48.244;9.188;2022-10-16T04:26:52;1.60;;;1.50;;
75450;SDS011;64029;48.244;9.188;2022-10-16T04:29:19;2.90;;;1.50;;
75450;SDS011;64029;48.244;9.188;2022-10-16T04:31:47;5.73;;;1.50;;
75450;SDS011;64029;48.244;9.188;2022-10-16T04:34:14;2.27;;;1.60;;
75450;SDS011;64029;48.244;9.188;2022-10-16T04:36:41;4.60;;;1.73;;
75450;SDS011;64029;48.244;9.188;2022-10-16T04:39:08;1.60;;;1.50;;
75450;SDS011;64029;48.244;9.188;2022-10-16T04:41:34;1.73;;;1.50;;
75450;SDS011;64029;48.244;9.188;2022-10-16T04:44:01;6.43;;;1.70;;
75450;SDS011;64029;48.244;9.188;2022-10-16T04:46:28;6.70;;;1.80;;
75450;SDS011;64029;48.244;9.188;2022-10-16T04:48:56;3.27;;;2.10;;
75450;SDS011;64029;48.244;9.188;2022-10-16T04:51:23;5.33;;;1.70;;
75450;SDS011;64029;48.244;9.188;2022-10-16T04:53:50;8.23;;;1.57;;
75450;SDS011;64029;48.244;9.188;2022-10-16T04:56:17;4.63;;;1.70;;
75450;SDS011;64029;48.244;9.188;2022-10-16T04:58:45;3.10;;;1.73;;
75450;SDS011;64029;48.244;9.188;2022-10-16T05:01:12;2.30;;;1.97;;
75450;SDS011;64029;48.244;9.188;2022-10-16T05:03:39;4.40;;;1.90;;
75450;SDS011;64029;48.244;9.188;2022-10-16T05:06:08;2.13;;;1.93;;
75450;SDS011;64029;48.244;9.188;2022-10-16T05:08:34;3.80;;;2.37;;
75450;SDS011;64029;48.244;9.188;2022-10-16T05:11:01;2.90;;;2.30;;
75450;SDS011;64029;48.244;9.188;2022-10-16T05:13:28;2.80;;;2.07;;
75450;SDS011;64029;48.244;9.188;2022-10-16T05:15:55;4.47;;;1.97;;
75450;SDS011;64029;48.244;9.188;2022-10-16T05:18:22;2.00;;;1.73;;
75450;SDS011;64029;48.244;9.188;2022-10-16T05:20:48;2.67;;;2.27;;
75450;SDS011;64029;48.244;9.188;2022-10-16T05:23:17;2.40;;;2.20;;
75450;SDS011;64029;48.244;9.188;2022-10-16T05:25:45;2.17;;;1.60;;
75450;SDS011;64029;48.244;9.188;2022-10-16T05:28:18;8.33;;;2.27;;
75450;SDS011;64029;48.244;9.188;2022-10-16T05:30:45;5.13;;;2.20;;
75450;SDS011;64029;48.244;9.188;2022-10-16T05:33:12;2.03;;;1.93;;
75450;SDS011;64029;48.244;9.188;2022-10-16T05:35:39;4.17;;;2.20;;
75450;SDS011;64029;48.244;9.188;2022-10-16T05:38:05;2.67;;;2.43;;
75450;SDS011;64029;48.244;9.188;2022-10-16T05:40:33;3.10;;;1.80;;
75450;SDS011;64029;48.244;9.188;2022-10-16T05:43:00;6.57;;;2.57;;
75450;SDS011;64029;48.244;9.188;2022-10-16T05:45:27;3.33;;;2.03;;
75450;SDS011;64029;48.244;9.188;2022-10-16T05:47:54;2.60;;;2.40;;
75450;SDS011;64029;48.244;9.188;2022-10-16T05:50:21;2.40;;;2.20;;
75450;SDS011;64029;48.244;9.188;2022-10-16T05:52:47;3.50;;;2.67;;
75450;SDS011;64029;48.244;9.188;2022-10-16T05:55:14;5.70;;;2.47;;
75450;SDS011;64029;48.244;9.188;2022-10-16T05:57:42;2.37;;;2.27;;
75450;SDS011;64029;48.244;9.188;2022-10-16T06:00:10;8.20;;;3.27;;
75450;SDS011;64029;48.244;9.188;2022-10-16T06:02:37;2.93;;;2.63;;
75450;SDS011;64029;48.244;9.188;2022-10-16T06:05:04;4.00;;;3.07;;
75450;SDS011;64029;48.244;9.188;2022-10-16T06:07:33;3.97;;;2.67;;
75450;SDS011;64029;48.244;9.188;2022-10-16T06:10:01;5.00;;;3.17;;
75450;SDS011;64029;48.244;9.188;2022-10-16T06:12:28;2.90;;;2.70;;
75450;SDS011;64029;48.244;9.188;2022-10-16T06:14:57;4.00;;;3.10;;
75450;SDS011;64029;48.244;9.188;2022-10-16T06:17:23;4.00;;;3.60;;
75450;SDS011;64029;48.244;9.188;2022-10-16T06:19:50;5.17;;;3.50;;
75450;SDS011;64029;48.244;9.188;2022-10-16T06:22:17;6.50;;;3.90;;
75450;SDS011;64029;48.244;9.188;2022-10-16T06:24:44;5.70;;;4.07;;
75450;SDS011;64029;48.244;9.188;2022-10-16T06:27:11;8.53;;;4.40;;
75450;SDS011;64029;48.244;9.188;2022-10-16T06:29:38;5.43;;;4.20;;
75450;SDS011;64029;48.244;9.188;2022-10-16T06:32:06;5.90;;;4.00;;
75450;SDS011;64029;48.244;9.188;2022-10-16T06:34:33;4.47;;;4.03;;
75450;SDS011;64029;48.244;9.188;2022-10-16T06:37:00;6.20;;;3.83;;
75450;SDS011;64029;48.244;9.188;2022-10-16T06:39:26;3.60;;;3.30;;
75450;SDS011;64029;48.244;9.188;2022-10-16T06:41:53;4.53;;;4.03;;
75450;SDS011;64029;48.244;9.188;2022-10-16T06:44:20;6.00;;;4.50;;
75450;SDS011;64029;48.244;9.188;2022-10-16T06:46:47;6.13;;;4.47;;
75450;SDS011;64029;48.244;9.188;2022-10-16T06:49:15;3.70;;;3.40;;
75450;SDS011;64029;48.244;9.188;2022-10-16T06:51:46;4.83;;;3.60;;
75450;SDS011;64029;48.244;9.188;2022-10-16T06:54:14;5.40;;;3.67;;
75450;SDS011;64029;48.244;9.188;2022-10-16T06:56:42;4.43;;;3.90;;
75450;SDS011;64029;48.244;9.188;2022-10-16T06:59:09;4.23;;;3.83;;
75450;SDS011;64029;48.244;9.188;2022-10-16T07:01:36;4.30;;;3.90;;
75450;SDS011;64029;48.244;9.188;2022-10-16T07:04:03;4.27;;;3.87;;
75450;SDS011;64029;48.244;9.188;2022-10-16T07:06:32;5.97;;;4.93;;
75450;SDS011;64029;48.244;9.188;2022-10-16T07:09:01;6.57;;;5.10;;
75450;SDS011;64029;48.244;9.188;2022-10-16T07:11:29;9.80;;;5.10;;
75450;SDS011;64029;48.244;9.188;2022-10-16T07:13:56;6.20;;;4.63;;
75450;SDS011;64029;48.244;9.188;2022-10-16T07:16:23;5.40;;;4.50;;
75450;SDS011;64029;48.244;9.188;2022-10-16T07:18:53;4.97;;;4.43;;
75450;SDS011;64029;48.244;9.188;2022-10-16T07:21:23;4.90;;;4.40;;
75450;SDS011;64029;48.244;9.188;2022-10-16T07:23:53;5.20;;;4.40;;
75450;SDS011;64029;48.244;9.188;2022-10-16T07:26:20;4.50;;;4.10;;
75450;SDS011;64029;48.244;9.188;2022-10-16T07:28:48;4.97;;;4.47;;
75450;SDS011;64029;48.244;9.188;2022-10-16T07:31:15;5.07;;;4.33;;
75450;SDS011;64029;48.244;9.188;2022-10-16T07:33:43;6.10;;;5.50;;
75450;SDS011;64029;48.244;9.188;2022-10-16T07:36:12;7.77;;;6.20;;
75450;SDS011;64029;48.244;9.188;2022-10-16T07:38:39;6.27;;;5.20;;
75450;SDS011;64029;48.244;9.188;2022-10-16T07:41:09;5.00;;;4.60;;
75450;SDS011;64029;48.244;9.188;2022-10-16T07:43:37;4.87;;;4.37;;
75450;SDS011;64029;48.244;9.188;2022-10-16T07:46:04;5.47;;;4.23;;
75450;SDS011;64029;48.244;9.188;2022-10-16T07:48:31;5.13;;;4.63;;
75450;SDS011;64029;48.244;9.188;2022-10-16T07:50:59;5.07;;;4.50;;
75450;SDS011;64029;48.244;9.188;2022-10-16T07:53:27;4.10;;;3.70;;
75450;SDS011;64029;48.244;9.188;2022-10-16T07:55:56;4.07;;;3.43;;
75450;SDS011;64029;48.244;9.188;2022-10-16T07:58:25;5.83;;;4.00;;
75450;SDS011;64029;48.244;9.188;2022-10-16T08:00:52;9.60;;;4.57;;
75450;SDS011;64029;48.244;9.188;2022-10-16T08:03:19;4.80;;;3.80;;
75450;SDS011;64029;48.244;9.188;2022-10-16T08:05:46;5.70;;;4.87;;
75450;SDS011;64029;48.244;9.188;2022-10-16T08:08:13;4.83;;;4.33;;
75450;SDS011;64029;48.244;9.188;2022-10-16T08:10:41;6.37;;;4.13;;
75450;SDS011;64029;48.244;9.188;2022-10-16T08:13:08;7.13;;;5.47;;
75450;SDS011;64029;48.244;9.188;2022-10-16T08:15:37;5.03;;;4.63;;
75450;SDS011;64029;48.244;9.188;2022-10-16T08:18:04;4.27;;;3.90;;
75450;SDS011;64029;48.244;9.188;2022-10-16T08:20:31;6.57;;;4.27;;
75450;SDS011;64029;48.244;9.188;2022-10-16T08:22:59;3.53;;;3.23;;
75450;SDS011;64029;48.244;9.188;2022-10-16T08:25:26;6.03;;;3.00;;
75450;SDS011;64029;48.244;9.188;2022-10-16T08:27:53;4.23;;;3.77;;
75450;SDS011;64029;48.244;9.188;2022-10-16T08:30:21;3.97;;;3.50;;
75450;SDS011;64029;48.244;9.188;2022-10-16T08:32:50;4.20;;;3.67;;
75450;SDS011;64029;48.244;9.188;2022-10-16T08:35:17;6.37;;;2.97;;
75450;SDS011;64029;48.244;9.188;2022-10-16T08:37:44;3.43;;;3.10;;
75450;SDS011;64029;48.244;9.188;2022-10-16T08:40:18;5.00;;;2.80;;
75450;SDS011;64029;48.244;9.188;2022-10-16T08:42:50;3.00;;;2.70;;
75450;SDS011;64029;48.244;9.188;2022-10-16T08:45:31;6.57;;;3.43;;
75450;SDS011;64029;48.244;9.188;2022-10-16T08:48:10;5.80;;;3.13;;
75450;SDS011;64029;48.244;9.188;2022-10-16T08:50:43;3.60;;;2.97;;
75450;SDS011;64029;48.244;9.188;2022-10-16T08:53:13;5.17;;;3.10;;
75450;SDS011;64029;48.244;9.188;2022-10-16T08:55:45;4.00;;;3.40;;
75450;SDS011;64029;48.244;9.188;2022-10-16T08:58:16;4.70;;;3.03;;
75450;SDS011;64029;48.244;9.188;2022-10-16T09:00:44;3.87;;;2.90;;
75450;SDS011;64029;48.244;9.188;2022-10-16T09:03:20;10.97;;;2.33;;
75450;SDS011;64029;48.244;9.188;2022-10-16T09:06:09;4.17;;;2.23;;
75450;SDS011;64029;48.244;9.188;2022-10-16T09:08:58;4.43;;;2.90;;
75450;SDS011;64029;48.244;9.188;2022-10-16T09:11:34;3.83;;;2.53;;
75450;SDS011;64029;48.244;9.188;2022-10-16T09:14:13;2.53;;;2.37;;
75450;SDS011;64029;48.244;9.188;2022-10-16T09:17:03;4.30;;;3.20;;
75450;SDS011;64029;48.244;9.188;2022-10-16T09:19:41;4.73;;;4.10;;
75450;SDS011;64029;48.244;9.188;2022-10-16T09:22:14;6.03;;;3.93;;
75450;SDS011;64029;48.244;9.188;2022-10-16T09:24:43;5.90;;;3.13;;
75450;SDS011;64029;48.244;9.188;2022-10-16T09:27:10;9.27;;;7.23;;
75450;SDS011;64029;48.244;9.188;2022-10-16T09:29:38;10.73;;;6.43;;
75450;SDS011;64029;48.244;9.188;2022-10-16T09:32:08;9.07;;;6.87;;
75450;SDS011;64029;48.244;9.188;2022-10-16T09:34:42;5.60;;;5.10;;
75450;SDS011;64029;48.244;9.188;2022-10-16T09:37:14;9.13;;;6.53;;
75450;SDS011;64029;48.244;9.188;2022-10-16T09:39:44;8.57;;;4.90;;
75450;SDS011;64029;48.244;9.188;2022-10-16T09:42:13;4.20;;;3.50;;
75450;SDS011;64029;48.244;9.188;2022-10-16T09:44:42;9.97;;;6.43;;
75450;SDS011;64029;48.244;9.188;2022-10-16T09:47:16;7.67;;;4.77;;
75450;SDS011;64029;48.244;9.188;2022-10-16T09:49:53;4.87;;;3.80;;
75450;SDS011;64029;48.244;9.188;2022-10-16T09:52:22;4.47;;;4.07;;
75450;SDS011;64029;48.244;9.188;2022-10-16T09:54:51;5.03;;;4.53;;
75450;SDS011;64029;48.244;9.188;2022-10-16T09:57:19;4.90;;;4.40;;
75450;SDS011;64029;48.244;9.188;2022-10-16T09:59:47;7.60;;;5.53;;
75450;SDS011;64029;48.244;9.188;2022-10-16T10:02:15;5.10;;;4.30;;
75450;SDS011;64029;48.244;9.188;2022-10-16T10:04:45;6.50;;;4.40;;
75450;SDS011;64029;48.244;9.188;2022-10-16T10:07:23;3.97;;;3.57;;
75450;SDS011;64029;48.244;9.188;2022-10-16T10:09:51;8.80;;;3.33;;
75450;SDS011;64029;48.244;9.188;2022-10-16T10:12:20;4.93;;;3.33;;
75450;SDS011;64029;48.244;9.188;2022-10-16T10:14:48;4.33;;;2.73;;
75450;SDS011;64029;48.244;9.188;2022-10-16T10:17:18;4.20;;;2.20;;
75450;SDS011;64029;48.244;9.188;2022-10-16T10:19:51;3.60;;;2.20;;
75450;SDS011;64029;48.244;9.188;2022-10-16T10:22:29;3.20;;;2.50;;
75450;SDS011;64029;48.244;9.188;2022-10-16T10:25:07;5.20;;;2.30;;
75450;SDS011;64029;48.244;9.188;2022-10-16T10:27:45;3.60;;;2.60;;
75450;SDS011;64029;48.244;9.188;2022-10-16T10:30:32;3.60;;;2.07;;
75450;SDS011;64029;48.244;9.188;2022-10-16T10:33:13;2.30;;;2.10;;
75450;SDS011;64029;48.244;9.188;2022-10-16T10:35:48;2.23;;;1.90;;
75450;SDS011;64029;48.244;9.188;2022-10-16T10:38:27;2.40;;;1.77;;
75450;SDS011;64029;48.244;9.188;2022-10-16T10:41:08;3.13;;;2.00;;
75450;SDS011;64029;48.244;9.188;2022-10-16T10:43:52;5.30;;;2.50;;
75450;SDS011;64029;48.244;9.188;2022-10-16T10:46:28;4.47;;;2.53;;
75450;SDS011;64029;48.244;9.188;2022-10-16T10:49:06;6.07;;;2.70;;
75450;SDS011;64029;48.244;9.188;2022-10-16T10:51:44;2.83;;;2.60;;
75450;SDS011;64029;48.244;9.188;2022-10-16T10:54:22;4.60;;;2.33;;
75450;SDS011;64029;48.244;9.188;2022-10-16T10:56:57;4.50;;;2.03;;
75450;SDS011;64029;48.244;9.188;2022-10-16T10:59:39;2.50;;;2.13;;
75450;SDS011;64029;48.244;9.188;2022-10-16T11:02:21;3.27;;;2.30;;
75450;SDS011;64029;48.244;9.188;2022-10-16T11:07:52;2.73;;;2.40;;
75450;SDS011;64029;48.244;9.188;2022-10-16T11:10:26;2.83;;;2.17;;
75450;SDS011;64029;48.244;9.188;2022-10-16T11:12:58;3.10;;;2.00;;
75450;SDS011;64029;48.244;9.188;2022-10-16T11:15:41;3.83;;;2.30;;
75450;SDS011;64029;48.244;9.188;2022-10-16T11:18:11;3.73;;;2.20;;
75450;SDS011;64029;48.244;9.188;2022-10-16T11:20:45;5.87;;;1.80;;
75450;SDS011;64029;48.244;9.188;2022-10-16T11:23:18;3.00;;;2.00;;
75450;SDS011;64029;48.244;9.188;2022-10-16T11:25:51;2.07;;;1.97;;
75450;SDS011;64029;48.244;9.188;2022-10-16T11:28:20;5.27;;;2.10;;
75450;SDS011;64029;48.244;9.188;2022-10-16T11:30:52;3.50;;;3.20;;
75450;SDS011;64029;48.244;9.188;2022-10-16T11:33:26;3.30;;;2.53;;
75450;SDS011;64029;48.244;9.188;2022-10-16T11:35:59;3.07;;;2.27;;
75450;SDS011;64029;48.244;9.188;2022-10-16T11:38:30;4.00;;;2.10;;
75450;SDS011;64029;48.244;9.188;2022-10-16T11:41:04;3.77;;;1.87;;
75450;SDS011;64029;48.244;9.188;2022-10-16T11:43:42;3.20;;;1.80;;
75450;SDS011;64029;48.244;9.188;2022-10-16T11:46:15;6.70;;;2.23;;
75450;SDS011;64029;48.244;9.188;2022-10-16T11:48:48;3.53;;;1.80;;
75450;SDS011;64029;48.244;9.188;2022-10-16T11:51:20;4.13;;;2.10;;
75450;SDS011;64029;48.244;9.188;2022-10-16T11:53:53;2.27;;;2.07;;
75450;SDS011;64029;48.244;9.188;2022-10-16T11:56:26;1.90;;;1.60;;
75450;SDS011;64029;48.244;9.188;2022-10-16T11:58:56;1.93;;;1.83;;
75450;SDS011;64029;48.244;9.188;2022-10-16T12:01:28;2.00;;;1.87;;
75450;SDS011;64029;48.244;9.188;2022-10-16T12:04:07;1.70;;;1.60;;
75450;SDS011;64029;48.244;9.188;2022-10-16T12:06:43;2.33;;;1.60;;
75450;SDS011;64029;48.244;9.188;2022-10-16T12:09:15;2.10;;;2.00;;
75450;SDS011;64029;48.244;9.188;2022-10-16T12:11:49;3.33;;;1.77;;
75450;SDS011;64029;48.244;9.188;2022-10-16T12:14:20;3.90;;;2.00;;
75450;SDS011;64029;48.244;9.188;2022-10-16T12:17:00;2.20;;;2.00;;
75450;SDS011;64029;48.244;9.188;2022-10-16T12:19:30;7.00;;;1.90;;
75450;SDS011;64029;48.244;9.188;2022-10-16T12:21:59;4.40;;;1.37;;
75450;SDS011;64029;48.244;9.188;2022-10-16T12:24:32;1.63;;;1.53;;
75450;SDS011;64029;48.244;9.188;2022-10-16T12:27:03;2.37;;;1.60;;
75450;SDS011;64029;48.244;9.188;2022-10-16T12:29:33;2.67;;;1.77;;
75450;SDS011;64029;48.244;9.188;2022-10-16T12:32:02;4.73;;;1.90;;
75450;SDS011;64029;48.244;9.188;2022-10-16T12:34:33;6.13;;;2.40;;
75450;SDS011;64029;48.244;9.188;2022-10-16T12:37:08;6.10;;;3.20;;
75450;SDS011;64029;48.244;9.188;2022-10-16T12:39:38;4.00;;;2.87;;
75450;SDS011;64029;48.244;9.188;2022-10-16T12:42:19;2.93;;;2.33;;
75450;SDS011;64029;48.244;9.188;2022-10-16T12:44:49;4.13;;;1.90;;
75450;SDS011;64029;48.244;9.188;2022-10-16T12:47:20;3.77;;;1.70;;
75450;SDS011;64029;48.244;9.188;2022-10-16T12:49:49;3.03;;;1.63;;
75450;SDS011;64029;48.244;9.188;2022-10-16T12:52:27;3.00;;;1.67;;
75450;SDS011;64029;48.244;9.188;2022-10-16T12:54:55;5.40;;;1.90;;
75450;SDS011;64029;48.244;9.188;2022-10-16T12:57:37;3.77;;;2.03;;
75450;SDS011;64029;48.244;9.188;2022-10-16T13:00:20;5.30;;;2.27;;
75450;SDS011;64029;48.244;9.188;2022-10-16T13:02:58;4.50;;;2.00;;
75450;SDS011;64029;48.244;9.188;2022-10-16T13:05:50;4.10;;;1.80;;
75450;SDS011;64029;48.244;9.188;2022-10-16T13:08:38;3.77;;;1.83;;
75450;SDS011;64029;48.244;9.188;2022-10-16T13:11:18;2.17;;;1.90;;
75450;SDS011;64029;48.244;9.188;2022-10-16T13:13:58;5.90;;;1.90;;
75450;SDS011;64029;48.244;9.188;2022-10-16T13:16:44;3.97;;;2.00;;
75450;SDS011;64029;48.244;9.188;2022-10-16T13:19:20;2.73;;;2.00;;
75450;SDS011;64029;48.244;9.188;2022-10-16T13:21:55;1.70;;;1.60;;
75450;SDS011;64029;48.244;9.188;2022-10-16T13:24:31;2.77;;;1.67;;
75450;SDS011;64029;48.244;9.188;2022-10-16T13:27:14;1.80;;;1.60;;
75450;SDS011;64029;48.244;9.188;2022-10-16T13:29:53;2.07;;;1.50;;
75450;SDS011;64029;48.244;9.188;2022-10-16T13:32:27;6.93;;;2.07;;
75450;SDS011;64029;48.244;9.188;2022-10-16T13:34:54;2.80;;;1.90;;
75450;SDS011;64029;48.244;9.188;2022-10-16T13:37:22;2.27;;;2.07;;
75450;SDS011;64029;48.244;9.188;2022-10-16T13:39:50;1.73;;;1.63;;
75450;SDS011;64029;48.244;9.188;2022-10-16T13:42:19;2.27;;;2.07;;
75450;SDS011;64029;48.244;9.188;2022-10-16T13:44:52;2.33;;;1.53;;
75450;SDS011;64029;48.244;9.188;2022-10-16T13:47:20;1.57;;;1.47;;
75450;SDS011;64029;48.244;9.188;2022-10-16T13:49:58;4.30;;;1.90;;
75450;SDS011;64029;48.244;9.188;2022-10-16T13:52:26;5.13;;;1.87;;
75450;SDS011;64029;48.244;9.188;2022-10-16T13:54:53;2.53;;;1.60;;
75450;SDS011;64029;48.244;9.188;2022-10-16T13:57:21;2.40;;;1.67;;
75450;SDS011;64029;48.244;9.188;2022-10-16T13:59:49;5.40;;;1.97;;
75450;SDS011;64029;48.244;9.188;2022-10-16T14:02:20;2.60;;;1.90;;
75450;SDS011;64029;48.244;9.188;2022-10-16T14:04:53;3.53;;;1.73;;
75450;SDS011;64029;48.244;9.188;2022-10-16T14:07:23;2.27;;;1.60;;
75450;SDS011;64029;48.244;9.188;2022-10-16T14:09:50;1.80;;;1.67;;
75450;SDS011;64029;48.244;9.188;2022-10-16T14:12:19;3.13;;;1.50;;
75450;SDS011;64029;48.244;9.188;2022-10-16T14:14:52;2.27;;;1.50;;
75450;SDS011;64029;48.244;9.188;2022-10-16T14:17:22;3.00;;;1.47;;
75450;SDS011;64029;48.244;9.188;2022-10-16T14:19:51;3.03;;;1.40;;
75450;SDS011;64029;48.244;9.188;2022-10-16T14:22:23;2.50;;;1.27;;
75450;SDS011;64029;48.244;9.188;2022-10-16T14:24:55;3.10;;;1.40;;
75450;SDS011;64029;48.244;9.188;2022-10-16T14:27:28;1.87;;;1.30;;
75450;SDS011;64029;48.244;9.188;2022-10-16T14:30:14;3.47;;;1.40;;
75450;SDS011;64029;48.244;9.188;2022-10-16T14:32:52;4.00;;;1.70;;
75450;SDS011;64029;48.244;9.188;2022-10-16T14:35:27;2.93;;;1.57;;
75450;SDS011;64029;48.244;9.188;2022-10-16T14:37:56;2.17;;;1.53;;
75450;SDS011;64029;48.244;9.188;2022-10-16T14:40:25;2.33;;;1.47;;
75450;SDS011;64029;48.244;9.188;2022-10-16T14:42:53;1.63;;;1.50;;
75450;SDS011;64029;48.244;9.188;2022-10-16T14:45:23;1.40;;;1.30;;
75450;SDS011;64029;48.244;9.188;2022-10-16T14:47:52;2.77;;;1.33;;
75450;SDS011;64029;48.244;9.188;2022-10-16T14:50:20;2.33;;;1.40;;
75450;SDS011;64029;48.244;9.188;2022-10-16T14:52:47;1.43;;;1.33;;
75450;SDS011;64029;48.244;9.188;2022-10-16T14:55:14;4.70;;;1.40;;
75450;SDS011;64029;48.244;9.188;2022-10-16T14:57:42;2.53;;;1.40;;
75450;SDS011;64029;48.244;9.188;2022-10-16T15:00:15;2.90;;;1.47;;
75450;SDS011;64029;48.244;9.188;2022-10-16T15:02:46;7.53;;;1.70;;
75450;SDS011;64029;48.244;9.188;2022-10-16T15:05:16;2.43;;;1.60;;
75450;SDS011;64029;48.244;9.188;2022-10-16T15:07:44;14.30;;;2.10;;
75450;SDS011;64029;48.244;9.188;2022-10-16T15:10:11;5.27;;;2.00;;
75450;SDS011;64029;48.244;9.188;2022-10-16T15:12:39;3.13;;;1.97;;